Terminal Aerodrome Forecast
Issued by NWS

Home | Current Version | Previous Version | Text Only | Print | Product List | Glossary On
Versions: 1 2 3 4 5 6 7 8 9 10 11 12 13 14
188
FTUS43 KMPX 270520
TAFRWF
TAF
KRWF 270520Z 2706/2806 15006KT P6SM SCT090
     FM271200 18009KT P6SM SCT090 BKN250
     FM271900 18013G20KT P6SM BKN120
     FM280000 15009KT P6SM BKN050 OVC120=

USA.gov is the U.S. government's official web portal to all federal, state and local government web resources and services.